PRIVATE WETTERSTATION BILLIGHEIM-ALLFELD                       ZURCK
Wetterdaten: Mittwoch, 03.09.2014
Datum Zeit Temp. A. Temp. A. min Temp. A. max Feuchte A. Luftdruck Regen Wind Richtung Richtung Sonnenschein ET Solar Taupunkt Windchill Windben Empfang
03.09.2014 00:00 13,3 C 13,3 C 13,3 C 88 % 1020,7 hPa 0,0 l/m 0,0 km/h (0 Bft) N 0 0 min 0,000 mm 0 W/m 11,4 C 13,3 C 0,0 km/h (0 Bft) 100 %
03.09.2014 00:10 13,2 C 13,2 C 13,3 C 88 % 1020,7 hPa 0,0 l/m 0,0 km/h (0 Bft) N 0 0 min 0,000 mm 0 W/m 11,3 C 13,2 C 0,0 km/h (0 Bft) 99 %
03.09.2014 00:20 13,2 C 13,2 C 13,2 C 88 % 1020,7 hPa 0,0 l/m 0,0 km/h (0 Bft) N 0 0 min 0,000 mm 0 W/m 11,3 C 13,2 C 0,0 km/h (0 Bft) 99 %
03.09.2014 00:30 13,1 C 13,1 C 13,2 C 88 % 1020,6 hPa 0,0 l/m 0,0 km/h (0 Bft) N 0 0 min 0,000 mm 0 W/m 11,2 C 13,1 C 0,0 km/h (0 Bft) 100 %
03.09.2014 00:40 13,1 C 13,1 C 13,1 C 88 % 1020,6 hPa 0,0 l/m 0,0 km/h (0 Bft) N 0 0 min 0,000 mm 0 W/m 11,2 C 13,1 C 0,0 km/h (0 Bft) 100 %
03.09.2014 00:50 13,0 C 13,0 C 13,1 C 88 % 1020,5 hPa 0,0 l/m 0,0 km/h (0 Bft) N 0 0 min 0,000 mm 0 W/m 11,1 C 13,0 C 0,0 km/h (0 Bft) 100 %
03.09.2014 01:00 13,0 C 13,0 C 13,1 C 88 % 1020,5 hPa 0,0 l/m 0,0 km/h (0 Bft) N 0 0 min 0,000 mm 0 W/m 11,1 C 13,0 C 0,0 km/h (0 Bft) 100 %
03.09.2014 01:10 13,0 C 13,0 C 13,0 C 88 % 1020,6 hPa 0,0 l/m 0,0 km/h (0 Bft) N 0 0 min 0,000 mm 0 W/m 11,1 C 13,0 C 0,0 km/h (0 Bft) 100 %
03.09.2014 01:20 13,0 C 12,9 C 13,0 C 88 % 1020,6 hPa 0,0 l/m 0,0 km/h (0 Bft) N 0 0 min 0,000 mm 0 W/m 11,1 C 13,0 C 0,0 km/h (0 Bft) 100 %
03.09.2014 01:30 13,1 C 12,9 C 13,1 C 88 % 1020,5 hPa 0,0 l/m 0,0 km/h (0 Bft) N-NW 337 0 min 0,000 mm 0 W/m 11,2 C 13,1 C 1,6 km/h (1 Bft) 99 %
03.09.2014 01:40 13,2 C 13,1 C 13,2 C 88 % 1020,5 hPa 0,0 l/m 0,0 km/h (0 Bft) N 0 0 min 0,000 mm 0 W/m 11,3 C 13,2 C 0,0 km/h (0 Bft) 100 %
03.09.2014 01:50 13,3 C 13,2 C 13,3 C 88 % 1020,5 hPa 0,0 l/m 0,0 km/h (0 Bft) N 0 0 min 0,000 mm 0 W/m 11,4 C 13,3 C 0,0 km/h (0 Bft) 100 %
03.09.2014 02:00 13,4 C 13,3 C 13,4 C 87 % 1020,4 hPa 0,0 l/m 0,0 km/h (0 Bft) N 0 0 min 0,000 mm 0 W/m 11,3 C 13,4 C 0,0 km/h (0 Bft) 100 %
03.09.2014 02:10 13,5 C 13,4 C 13,5 C 88 % 1020,4 hPa 0,0 l/m 0,0 km/h (0 Bft) N 0 0 min 0,000 mm 0 W/m 11,6 C 13,5 C 0,0 km/h (0 Bft) 100 %
03.09.2014 02:20 13,5 C 13,5 C 13,5 C 88 % 1020,3 hPa 0,0 l/m 0,0 km/h (0 Bft) N 0 0 min 0,000 mm 0 W/m 11,6 C 13,5 C 0,0 km/h (0 Bft) 100 %
03.09.2014 02:30 13,5 C 13,5 C 13,5 C 88 % 1020,4 hPa 0,0 l/m 0,0 km/h (0 Bft) N 0 0 min 0,000 mm 0 W/m 11,6 C 13,5 C 0,0 km/h (0 Bft) 100 %
03.09.2014 02:40 13,5 C 13,5 C 13,5 C 88 % 1020,3 hPa 0,0 l/m 0,0 km/h (0 Bft) N 0 0 min 0,000 mm 0 W/m 11,6 C 13,5 C 0,0 km/h (0 Bft) 100 %
03.09.2014 02:50 13,4 C 13,4 C 13,5 C 88 % 1020,2 hPa 0,0 l/m 0,0 km/h (0 Bft) N 0 0 min 0,000 mm 0 W/m 11,5 C 13,4 C 0,0 km/h (0 Bft) 100 %
03.09.2014 03:00 13,5 C 13,4 C 13,5 C 87 % 1020,1 hPa 0,0 l/m 0,0 km/h (0 Bft) N 0 0 min 0,000 mm 0 W/m 11,4 C 13,5 C 0,0 km/h (0 Bft) 99 %
03.09.2014 03:10 13,6 C 13,5 C 13,6 C 88 % 1020,1 hPa 0,0 l/m 0,0 km/h (0 Bft) N-NW 337 0 min 0,000 mm 0 W/m 11,6 C 13,6 C 1,6 km/h (1 Bft) 100 %
03.09.2014 03:20 13,6 C 13,6 C 13,6 C 88 % 1020,0 hPa 0,0 l/m 0,0 km/h (0 Bft) N-NW 337 0 min 0,000 mm 0 W/m 11,6 C 13,6 C 1,6 km/h (1 Bft) 99 %
03.09.2014 03:30 13,7 C 13,6 C 13,7 C 88 % 1020,0 hPa 0,0 l/m 0,0 km/h (0 Bft) N-NW 337 0 min 0,000 mm 0 W/m 11,7 C 13,7 C 1,6 km/h (1 Bft) 100 %
03.09.2014 03:40 13,7 C 13,7 C 13,7 C 88 % 1019,9 hPa 0,0 l/m 0,0 km/h (0 Bft) N-NW 337 0 min 0,000 mm 0 W/m 11,7 C 13,7 C 3,2 km/h (1 Bft) 100 %
03.09.2014 03:50 13,8 C 13,7 C 13,8 C 87 % 1019,9 hPa 0,0 l/m 0,0 km/h (0 Bft) N-NW 337 0 min 0,000 mm 0 W/m 11,7 C 13,8 C 4,8 km/h (1 Bft) 100 %
03.09.2014 04:00 13,8 C 13,8 C 13,8 C 88 % 1019,9 hPa 0,0 l/m 0,0 km/h (0 Bft) S-SW 202 0 min 0,000 mm 0 W/m 11,8 C 13,8 C 4,8 km/h (1 Bft) 100 %
03.09.2014 04:10 13,7 C 13,7 C 13,8 C 88 % 1019,9 hPa 0,0 l/m 0,0 km/h (0 Bft) SW 225 0 min 0,000 mm 0 W/m 11,7 C 13,7 C 3,2 km/h (1 Bft) 99 %
03.09.2014 04:20 13,5 C 13,5 C 13,7 C 88 % 1019,8 hPa 0,0 l/m 0,0 km/h (0 Bft) SW 225 0 min 0,000 mm 0 W/m 11,6 C 13,5 C 8,0 km/h (2 Bft) 99 %
03.09.2014 04:30 13,3 C 13,3 C 13,5 C 88 % 1019,8 hPa 0,0 l/m 0,0 km/h (0 Bft) W-SW 247 0 min 0,000 mm 0 W/m 11,4 C 13,3 C 3,2 km/h (1 Bft) 99 %
03.09.2014 04:40 13,2 C 13,2 C 13,3 C 88 % 1019,8 hPa 0,0 l/m 0,0 km/h (0 Bft) W-SW 247 0 min 0,000 mm 0 W/m 11,3 C 13,2 C 4,8 km/h (1 Bft) 100 %
03.09.2014 04:50 13,1 C 13,1 C 13,2 C 88 % 1019,8 hPa 0,0 l/m 0,0 km/h (0 Bft) NW 315 0 min 0,000 mm 0 W/m 11,2 C 13,1 C 6,4 km/h (2 Bft) 100 %
03.09.2014 05:00 12,9 C 12,9 C 13,1 C 88 % 1019,8 hPa 0,0 l/m 0,0 km/h (0 Bft) SW 225 0 min 0,000 mm 0 W/m 11,0 C 12,9 C 4,8 km/h (1 Bft) 98 %
03.09.2014 05:10 12,7 C 12,7 C 12,9 C 88 % 1019,7 hPa 0,0 l/m 0,0 km/h (0 Bft) W-SW 247 0 min 0,000 mm 0 W/m 10,8 C 12,7 C 3,2 km/h (1 Bft) 100 %
03.09.2014 05:20 12,4 C 12,4 C 12,7 C 88 % 1019,7 hPa 0,0 l/m 0,0 km/h (0 Bft) W-SW 247 0 min 0,000 mm 0 W/m 10,5 C 12,4 C 3,2 km/h (1 Bft) 99 %
03.09.2014 05:30 12,2 C 12,2 C 12,4 C 88 % 1019,7 hPa 0,0 l/m 0,0 km/h (0 Bft) W-SW 247 0 min 0,000 mm 0 W/m 10,3 C 12,2 C 1,6 km/h (1 Bft) 100 %
03.09.2014 05:40 12,2 C 12,2 C 12,3 C 88 % 1019,7 hPa 0,0 l/m 0,0 km/h (0 Bft) W-SW 247 0 min 0,000 mm 0 W/m 10,3 C 12,2 C 1,6 km/h (1 Bft) 100 %
03.09.2014 05:50 12,3 C 12,2 C 12,3 C 88 % 1019,7 hPa 0,0 l/m 0,0 km/h (0 Bft) NO 45 0 min 0,000 mm 0 W/m 10,4 C 12,3 C 9,7 km/h (2 Bft) 100 %
03.09.2014 06:00 12,3 C 12,2 C 12,3 C 88 % 1019,6 hPa 0,0 l/m 0,0 km/h (0 Bft) S-SO 157 0 min 0,000 mm 0 W/m 10,4 C 12,3 C 1,6 km/h (1 Bft) 100 %
03.09.2014 06:10 12,3 C 12,3 C 12,3 C 88 % 1019,6 hPa 0,0 l/m 0,0 km/h (0 Bft) NW 315 0 min 0,000 mm 0 W/m 10,4 C 12,3 C 4,8 km/h (1 Bft) 100 %
03.09.2014 06:20 12,3 C 12,3 C 12,3 C 88 % 1019,7 hPa 0,0 l/m 0,0 km/h (0 Bft) NO 45 0 min 0,000 mm 0 W/m 10,4 C 12,3 C 4,8 km/h (1 Bft) 100 %
03.09.2014 06:30 12,3 C 12,3 C 12,3 C 88 % 1019,7 hPa 0,0 l/m 0,0 km/h (0 Bft) NO 45 0 min 0,000 mm 0 W/m 10,4 C 12,3 C 1,6 km/h (1 Bft) 99 %
03.09.2014 06:40 12,3 C 12,3 C 12,3 C 88 % 1019,7 hPa 0,0 l/m 0,0 km/h (0 Bft) NO 45 0 min 0,000 mm 0 W/m 10,4 C 12,3 C 1,6 km/h (1 Bft) 100 %
03.09.2014 06:50 12,3 C 12,3 C 12,3 C 88 % 1019,7 hPa 0,0 l/m 0,0 km/h (0 Bft) O 90 0 min 0,000 mm 0 W/m 10,4 C 12,3 C 3,2 km/h (1 Bft) 98 %
03.09.2014 07:00 12,3 C 12,3 C 12,3 C 88 % 1019,7 hPa 0,0 l/m 0,0 km/h (0 Bft) N-NW 337 0 min 0,000 mm 0 W/m 10,4 C 12,3 C 3,2 km/h (1 Bft) 100 %
03.09.2014 07:10 12,3 C 12,3 C 12,4 C 88 % 1019,8 hPa 0,0 l/m 0,0 km/h (0 Bft) W-NW 292 0 min 0,000 mm 7 W/m 10,4 C 12,3 C 1,6 km/h (1 Bft) 100 %
03.09.2014 07:20 12,3 C 12,3 C 12,4 C 88 % 1019,8 hPa 0,0 l/m 0,0 km/h (0 Bft) NW 315 0 min 0,000 mm 16 W/m 10,4 C 12,3 C 3,2 km/h (1 Bft) 99 %
03.09.2014 07:30 12,3 C 12,3 C 12,3 C 88 % 1019,9 hPa 0,0 l/m 0,0 km/h (0 Bft) SW 225 0 min 0,000 mm 16 W/m 10,4 C 12,3 C 6,4 km/h (2 Bft) 100 %
03.09.2014 07:40 12,3 C 12,3 C 12,3 C 88 % 1019,9 hPa 0,0 l/m 0,0 km/h (0 Bft) W-SW 247 0 min 0,000 mm 30 W/m 10,4 C 12,3 C 3,2 km/h (1 Bft) 99 %
03.09.2014 07:50 12,4 C 12,3 C 12,4 C 88 % 1020,1 hPa 0,0 l/m 0,0 km/h (0 Bft) W-SW 247 0 min 0,000 mm 30 W/m 10,5 C 12,4 C 4,8 km/h (1 Bft) 100 %
03.09.2014 08:00 12,4 C 12,4 C 12,4 C 88 % 1020,1 hPa 0,0 l/m 0,0 km/h (0 Bft) W-SW 247 0 min 0,000 mm 44 W/m 10,5 C 12,4 C 4,8 km/h (1 Bft) 100 %
03.09.2014 08:10 12,5 C 12,4 C 12,5 C 88 % 1020,1 hPa 0,0 l/m 0,0 km/h (0 Bft) W-SW 247 0 min 0,000 mm 54 W/m 10,6 C 12,5 C 1,6 km/h (1 Bft) 100 %
03.09.2014 08:20 12,6 C 12,5 C 12,6 C 88 % 1020,1 hPa 0,0 l/m 0,0 km/h (0 Bft) W-SW 247 0 min 0,000 mm 69 W/m 10,7 C 12,6 C 3,2 km/h (1 Bft) 99 %
03.09.2014 08:30 12,7 C 12,6 C 12,8 C 88 % 1020,1 hPa 0,0 l/m 0,0 km/h (0 Bft) W-SW 247 0 min 0,000 mm 79 W/m 10,8 C 12,7 C 8,0 km/h (2 Bft) 99 %
03.09.2014 08:40 12,8 C 12,7 C 12,8 C 88 % 1020,1 hPa 0,0 l/m 0,0 km/h (0 Bft) SW 225 0 min 0,000 mm 95 W/m 10,9 C 12,8 C 4,8 km/h (1 Bft) 100 %
03.09.2014 08:50 12,9 C 12,8 C 12,9 C 87 % 1020,1 hPa 0,0 l/m 0,0 km/h (0 Bft) S 180 0 min 0,000 mm 95 W/m 10,8 C 12,9 C 6,4 km/h (2 Bft) 99 %
03.09.2014 09:00 13,1 C 12,9 C 13,1 C 87 % 1020,1 hPa 0,0 l/m 0,0 km/h (0 Bft) SW 225 0 min 0,051 mm 102 W/m 11,0 C 13,1 C 9,7 km/h (2 Bft) 100 %
03.09.2014 09:10 13,2 C 13,1 C 13,2 C 87 % 1020,2 hPa 0,0 l/m 0,0 km/h (0 Bft) S-SW 202 0 min 0,000 mm 90 W/m 11,1 C 13,2 C 4,8 km/h (1 Bft) 100 %
03.09.2014 09:20 13,2 C 13,2 C 13,2 C 87 % 1020,1 hPa 0,0 l/m 0,0 km/h (0 Bft) O-SO 112 0 min 0,000 mm 135 W/m 11,1 C 13,2 C 4,8 km/h (1 Bft) 100 %
03.09.2014 09:30 13,3 C 13,2 C 13,3 C 86 % 1019,9 hPa 0,0 l/m 0,0 km/h (0 Bft) W 270 10 min 0,000 mm 167 W/m 11,0 C 13,3 C 6,4 km/h (2 Bft) 100 %
03.09.2014 09:40 13,4 C 13,3 C 13,4 C 86 % 1020,0 hPa 0,0 l/m 0,0 km/h (0 Bft) NO 45 10 min 0,000 mm 167 W/m 11,1 C 13,4 C 6,4 km/h (2 Bft) 100 %
03.09.2014 09:50 13,6 C 13,4 C 13,6 C 86 % 1020,1 hPa 0,0 l/m 0,0 km/h (0 Bft) N-NO 22 10 min 0,000 mm 169 W/m 11,3 C 13,6 C 8,0 km/h (2 Bft) 100 %
03.09.2014 10:00 13,7 C 13,6 C 13,7 C 85 % 1020,1 hPa 0,0 l/m 1,6 km/h (1 Bft) W 270 10 min 0,076 mm 171 W/m 11,2 C 13,7 C 8,0 km/h (2 Bft) 100 %
03.09.2014 10:10 13,7 C 13,6 C 13,7 C 86 % 1020,1 hPa 0,0 l/m 1,6 km/h (1 Bft) W 270 10 min 0,000 mm 179 W/m 11,4 C 13,7 C 8,0 km/h (2 Bft) 100 %
03.09.2014 10:20 13,8 C 13,7 C 13,8 C 86 % 1020,1 hPa 0,0 l/m 1,6 km/h (1 Bft) W-SW 247 10 min 0,000 mm 200 W/m 11,5 C 13,8 C 8,0 km/h (2 Bft) 100 %
03.09.2014 10:30 14,0 C 13,8 C 14,0 C 85 % 1020,0 hPa 0,0 l/m 0,0 km/h (0 Bft) W-SW 247 10 min 0,000 mm 230 W/m 11,5 C 14,0 C 4,8 km/h (1 Bft) 100 %
03.09.2014 10:40 14,2 C 14,0 C 14,2 C 85 % 1020,1 hPa 0,0 l/m 0,0 km/h (0 Bft) W-SW 247 10 min 0,000 mm 258 W/m 11,7 C 14,2 C 6,4 km/h (2 Bft) 100 %
03.09.2014 10:50 14,2 C 14,2 C 14,3 C 84 % 1020,1 hPa 0,0 l/m 0,0 km/h (0 Bft) N-NW 337 10 min 0,000 mm 193 W/m 11,5 C 14,2 C 4,8 km/h (1 Bft) 100 %
03.09.2014 11:00 14,3 C 14,2 C 14,3 C 84 % 1020,2 hPa 0,0 l/m 0,0 km/h (0 Bft) NO 45 10 min 0,102 mm 200 W/m 11,6 C 14,3 C 6,4 km/h (2 Bft) 100 %
03.09.2014 11:10 14,4 C 14,2 C 14,4 C 85 % 1020,2 hPa 0,0 l/m 0,0 km/h (0 Bft) NW 315 10 min 0,000 mm 269 W/m 11,9 C 14,4 C 4,8 km/h (1 Bft) 100 %
03.09.2014 11:30 14,7 C 14,2 C 14,7 C 84 % 1020,0 hPa 0,0 l/m 0,4 km/h (0 Bft) W-SW 243 20 min 0,000 mm 155 W/m 12,0 C 14,7 C 4,8 km/h (1 Bft) 98 %
03.09.2014 11:40 14,7 C 14,7 C 14,7 C 84 % 1020,0 hPa 0,0 l/m 0,4 km/h (0 Bft) SW 236 10 min 0,000 mm 172 W/m 12,0 C 14,7 C 4,8 km/h (1 Bft) 97 %
03.09.2014 11:50 14,8 C 14,7 C 14,8 C 85 % 1020,1 hPa 0,0 l/m 1,6 km/h (1 Bft) N 9 10 min 0,000 mm 232 W/m 12,3 C 14,8 C 11,3 km/h (2 Bft) 97 %
03.09.2014 12:00 14,9 C 14,8 C 14,9 C 83 % 1020,1 hPa 0,0 l/m 1,3 km/h (1 Bft) NW 313 10 min 0,101 mm 158 W/m 12,0 C 14,9 C 17,7 km/h (3 Bft) 97 %
03.09.2014 12:10 15,0 C 14,9 C 15,0 C 84 % 1020,1 hPa 0,0 l/m 0,9 km/h (0 Bft) O 99 0 min 0,000 mm 132 W/m 12,3 C 15,0 C 8,0 km/h (2 Bft) 98 %
03.09.2014 12:20 14,8 C 14,8 C 15,0 C 84 % 1020,2 hPa 0,0 l/m 0,6 km/h (0 Bft) N-NO 25 0 min 0,000 mm 111 W/m 12,1 C 14,8 C 6,4 km/h (2 Bft) 98 %
03.09.2014 12:30 14,8 C 14,7 C 14,8 C 84 % 1020,1 hPa 0,0 l/m 0,5 km/h (0 Bft) W-NW 292 10 min 0,000 mm 163 W/m 12,1 C 14,8 C 6,4 km/h (2 Bft) 98 %
03.09.2014 12:40 14,9 C 14,8 C 14,9 C 84 % 1020,0 hPa 0,0 l/m 0,7 km/h (0 Bft) NO 42 10 min 0,000 mm 162 W/m 12,2 C 14,9 C 8,0 km/h (2 Bft) 97 %
03.09.2014 12:50 15,0 C 14,9 C 15,0 C 84 % 1020,0 hPa 0,0 l/m 1,2 km/h (1 Bft) O-SO 119 0 min 0,000 mm 151 W/m 12,3 C 15,0 C 8,0 km/h (2 Bft) 97 %
03.09.2014 13:00 15,0 C 15,0 C 15,1 C 83 % 1019,9 hPa 0,0 l/m 0,9 km/h (0 Bft) NO 42 0 min 0,000 mm 98 W/m 12,1 C 15,0 C 9,7 km/h (2 Bft) 98 %
03.09.2014 13:10 14,8 C 14,8 C 15,0 C 84 % 1019,9 hPa 0,0 l/m 0,6 km/h (0 Bft) SW 224 0 min 0,076 mm 95 W/m 12,1 C 14,8 C 6,4 km/h (2 Bft) 98 %
03.09.2014 13:20 14,8 C 14,8 C 14,9 C 84 % 1019,9 hPa 0,0 l/m 0,6 km/h (0 Bft) SW 227 0 min 0,000 mm 141 W/m 12,1 C 14,8 C 8,0 km/h (2 Bft) 98 %
03.09.2014 13:30 14,9 C 14,8 C 14,9 C 85 % 1019,9 hPa 0,0 l/m 0,4 km/h (0 Bft) SW 233 0 min 0,000 mm 141 W/m 12,4 C 14,9 C 6,4 km/h (2 Bft) 97 %
03.09.2014 13:40 15,0 C 14,9 C 15,0 C 85 % 1019,7 hPa 0,0 l/m 0,4 km/h (0 Bft) S-SW 199 0 min 0,000 mm 142 W/m 12,5 C 15,0 C 4,8 km/h (1 Bft) 97 %
03.09.2014 13:50 15,1 C 15,0 C 15,1 C 84 % 1019,8 hPa 0,0 l/m 0,4 km/h (0 Bft) N-NW 332 0 min 0,000 mm 127 W/m 12,4 C 15,1 C 4,8 km/h (1 Bft) 98 %
03.09.2014 14:00 15,1 C 15,1 C 15,1 C 85 % 1019,8 hPa 0,0 l/m 0,5 km/h (0 Bft) W-NW 292 0 min 0,077 mm 113 W/m 12,6 C 15,1 C 8,0 km/h (2 Bft) 97 %
03.09.2014 14:10 15,1 C 15,1 C 15,1 C 85 % 1019,7 hPa 0,0 l/m 0,7 km/h (0 Bft) NW 311 10 min 0,000 mm 169 W/m 12,6 C 15,1 C 6,4 km/h (2 Bft) 98 %
03.09.2014 14:20 15,3 C 15,1 C 15,3 C 85 % 1019,7 hPa 0,0 l/m 0,3 km/h (0 Bft) S 178 10 min 0,000 mm 188 W/m 12,8 C 15,3 C 6,4 km/h (2 Bft) 97 %
03.09.2014 14:30 15,6 C 15,3 C 15,6 C 83 % 1019,6 hPa 0,0 l/m 0,4 km/h (0 Bft) N-NO 15 10 min 0,000 mm 186 W/m 12,7 C 15,6 C 4,8 km/h (1 Bft) 98 %
03.09.2014 14:40 15,6 C 15,5 C 15,6 C 84 % 1019,4 hPa 0,0 l/m 0,9 km/h (0 Bft) SW 219 10 min 0,000 mm 197 W/m 12,9 C 15,6 C 9,7 km/h (2 Bft) 97 %
03.09.2014 14:50 15,8 C 15,6 C 15,8 C 84 % 1019,4 hPa 0,0 l/m 0,3 km/h (0 Bft) W-SW 246 10 min 0,000 mm 200 W/m 13,1 C 15,8 C 4,8 km/h (1 Bft) 97 %
03.09.2014 15:00 16,0 C 15,8 C 16,0 C 84 % 1019,4 hPa 0,0 l/m 0,2 km/h (0 Bft) SW 216 10 min 0,101 mm 172 W/m 13,3 C 16,0 C 4,8 km/h (1 Bft) 98 %
03.09.2014 15:10 16,1 C 16,0 C 16,1 C 84 % 1019,2 hPa 0,0 l/m 0,5 km/h (0 Bft) W 278 0 min 0,000 mm 151 W/m 13,4 C 16,1 C 8,0 km/h (2 Bft) 97 %
03.09.2014 15:20 16,3 C 16,1 C 16,3 C 84 % 1019,2 hPa 0,0 l/m 0,2 km/h (0 Bft) W 261 10 min 0,000 mm 343 W/m 13,6 C 16,3 C 3,2 km/h (1 Bft) 98 %
03.09.2014 15:30 16,6 C 16,3 C 16,6 C 83 % 1019,1 hPa 0,0 l/m 0,0 km/h (0 Bft) SW 234 10 min 0,000 mm 234 W/m 13,7 C 16,6 C 1,6 km/h (1 Bft) 97 %
03.09.2014 15:40 16,7 C 16,6 C 16,7 C 82 % 1019,0 hPa 0,0 l/m 0,5 km/h (0 Bft) W-SW 250 10 min 0,000 mm 179 W/m 13,6 C 16,7 C 6,4 km/h (2 Bft) 97 %
03.09.2014 15:50 16,7 C 16,7 C 16,8 C 81 % 1018,9 hPa 0,0 l/m 0,2 km/h (0 Bft) SW 236 10 min 0,000 mm 188 W/m 13,4 C 16,7 C 3,2 km/h (1 Bft) 97 %
03.09.2014 16:00 16,7 C 16,7 C 16,7 C 82 % 1018,8 hPa 0,0 l/m 0,2 km/h (0 Bft) O-NO 76 10 min 0,127 mm 272 W/m 13,6 C 16,7 C 4,8 km/h (1 Bft) 98 %
03.09.2014 16:10 17,0 C 16,7 C 17,0 C 82 % 1018,9 hPa 0,0 l/m 0,5 km/h (0 Bft) O-NO 69 10 min 0,000 mm 236 W/m 13,9 C 17,0 C 8,0 km/h (2 Bft) 97 %
03.09.2014 16:20 17,1 C 17,0 C 17,1 C 82 % 1018,8 hPa 0,0 l/m 0,4 km/h (0 Bft) N 5 10 min 0,000 mm 171 W/m 14,0 C 17,1 C 4,8 km/h (1 Bft) 97 %
03.09.2014 16:30 17,2 C 17,1 C 17,2 C 81 % 1018,6 hPa 0,0 l/m 0,2 km/h (0 Bft) S-SW 196 10 min 0,000 mm 248 W/m 13,9 C 17,2 C 3,2 km/h (1 Bft) 98 %
03.09.2014 16:40 17,4 C 17,2 C 17,4 C 82 % 1018,4 hPa 0,0 l/m 0,7 km/h (0 Bft) NW 317 10 min 0,000 mm 241 W/m 14,3 C 17,4 C 8,0 km/h (2 Bft) 97 %
03.09.2014 16:50 17,6 C 17,4 C 17,6 C 81 % 1018,3 hPa 0,0 l/m 0,2 km/h (0 Bft) NO 40 0 min 0,000 mm 142 W/m 14,3 C 17,6 C 6,4 km/h (2 Bft) 98 %
03.09.2014 17:00 17,8 C 17,6 C 17,9 C 81 % 1018,3 hPa 0,0 l/m 0,3 km/h (0 Bft) N 9 10 min 0,127 mm 155 W/m 14,5 C 17,8 C 4,8 km/h (1 Bft) 97 %
03.09.2014 17:10 18,1 C 17,8 C 18,1 C 79 % 1018,2 hPa 0,0 l/m 0,5 km/h (0 Bft) W 266 10 min 0,000 mm 153 W/m 14,4 C 18,1 C 8,0 km/h (2 Bft) 98 %
03.09.2014 17:20 18,1 C 18,1 C 18,1 C 78 % 1018,2 hPa 0,0 l/m 0,7 km/h (0 Bft) W-NW 284 0 min 0,000 mm 135 W/m 14,2 C 18,1 C 9,7 km/h (2 Bft) 97 %
03.09.2014 17:30 17,7 C 17,7 C 18,1 C 80 % 1018,2 hPa 0,0 l/m 1,2 km/h (1 Bft) NW 315 10 min 0,000 mm 156 W/m 14,2 C 17,7 C 9,7 km/h (2 Bft) 97 %
03.09.2014 17:40 17,6 C 17,6 C 17,7 C 81 % 1018,2 hPa 0,0 l/m 0,4 km/h (0 Bft) W-SW 248 0 min 0,000 mm 104 W/m 14,3 C 17,6 C 4,8 km/h (1 Bft) 98 %
03.09.2014 17:50 17,4 C 17,4 C 17,6 C 81 % 1018,1 hPa 0,0 l/m 0,6 km/h (0 Bft) N-NW 342 0 min 0,000 mm 104 W/m 14,1 C 17,4 C 9,7 km/h (2 Bft) 90 %
03.09.2014 18:00 17,2 C 17,2 C 17,4 C 81 % 1018,1 hPa 0,0 l/m 0,5 km/h (0 Bft) SW 223 0 min 0,076 mm 84 W/m 13,9 C 17,2 C 6,4 km/h (2 Bft) 97 %
03.09.2014 18:10 17,1 C 17,1 C 17,2 C 82 % 1018,2 hPa 0,0 l/m 0,1 km/h (0 Bft) SW 227 0 min 0,000 mm 69 W/m 14,0 C 17,1 C 4,8 km/h (1 Bft) 97 %
03.09.2014 18:20 16,9 C 16,9 C 17,1 C 82 % 1018,0 hPa 0,0 l/m 0,4 km/h (0 Bft) W-NW 299 0 min 0,000 mm 40 W/m 13,8 C 16,9 C 6,4 km/h (2 Bft) 97 %
03.09.2014 18:30 16,8 C 16,8 C 16,9 C 82 % 1018,2 hPa 0,0 l/m 0,5 km/h (0 Bft) S-SW 213 0 min 0,000 mm 40 W/m 13,7 C 16,8 C 4,8 km/h (1 Bft) 98 %
03.09.2014 18:40 16,7 C 16,7 C 16,8 C 83 % 1018,3 hPa 0,0 l/m 0,4 km/h (0 Bft) W 259 0 min 0,000 mm 32 W/m 13,8 C 16,7 C 4,8 km/h (1 Bft) 97 %
03.09.2014 18:50 16,7 C 16,7 C 16,7 C 83 % 1018,3 hPa 0,0 l/m 0,1 km/h (0 Bft) N 355 0 min 0,000 mm 26 W/m 13,8 C 16,7 C 3,2 km/h (1 Bft) 98 %
03.09.2014 19:00 16,6 C 16,6 C 16,7 C 83 % 1018,3 hPa 0,0 l/m 0,1 km/h (0 Bft) N-NW 341 0 min 0,026 mm 28 W/m 13,7 C 16,6 C 1,6 km/h (1 Bft) 98 %
03.09.2014 19:10 16,5 C 16,5 C 16,6 C 83 % 1018,3 hPa 0,0 l/m 0,4 km/h (0 Bft) W 261 0 min 0,000 mm 28 W/m 13,6 C 16,5 C 8,0 km/h (2 Bft) 98 %
03.09.2014 19:20 16,4 C 16,4 C 16,5 C 83 % 1018,3 hPa 0,0 l/m 0,3 km/h (0 Bft) SW 236 0 min 0,000 mm 23 W/m 13,5 C 16,4 C 3,2 km/h (1 Bft) 99 %
03.09.2014 19:30 16,3 C 16,3 C 16,4 C 84 % 1018,3 hPa 0,0 l/m 0,1 km/h (0 Bft) SW 236 0 min 0,000 mm 16 W/m 13,6 C 16,3 C 3,2 km/h (1 Bft) 100 %
03.09.2014 19:40 16,2 C 16,2 C 16,3 C 83 % 1018,4 hPa 0,0 l/m 0,6 km/h (0 Bft) W-SW 243 0 min 0,000 mm 11 W/m 13,3 C 16,2 C 6,4 km/h (2 Bft) 100 %
03.09.2014 19:50 16,1 C 16,1 C 16,2 C 84 % 1018,5 hPa 0,0 l/m 0,7 km/h (0 Bft) N 355 0 min 0,000 mm 5 W/m 13,4 C 16,1 C 6,4 km/h (2 Bft) 99 %
03.09.2014 20:00 16,0 C 16,0 C 16,1 C 84 % 1018,5 hPa 0,0 l/m 0,0 km/h (0 Bft) N 355 0 min 0,000 mm 0 W/m 13,3 C 16,0 C 1,6 km/h (1 Bft) 100 %
03.09.2014 20:10 15,9 C 15,9 C 16,0 C 84 % 1018,5 hPa 0,0 l/m 0,6 km/h (0 Bft) SW 218 0 min 0,000 mm 0 W/m 13,2 C 15,9 C 6,4 km/h (2 Bft) 100 %
03.09.2014 20:20 15,8 C 15,8 C 15,9 C 84 % 1018,5 hPa 0,0 l/m 0,7 km/h (0 Bft) O-SO 112 0 min 0,000 mm 0 W/m 13,1 C 15,8 C 8,0 km/h (2 Bft) 100 %
03.09.2014 20:30 15,7 C 15,7 C 15,8 C 85 % 1018,5 hPa 0,0 l/m 0,7 km/h (0 Bft) SW 234 0 min 0,000 mm 0 W/m 13,2 C 15,7 C 9,7 km/h (2 Bft) 100 %
03.09.2014 20:40 15,6 C 15,6 C 15,7 C 85 % 1018,7 hPa 0,0 l/m 0,3 km/h (0 Bft) W-SW 238 0 min 0,000 mm 0 W/m 13,1 C 15,6 C 6,4 km/h (2 Bft) 100 %
03.09.2014 20:50 15,5 C 15,5 C 15,6 C 85 % 1018,6 hPa 0,0 l/m 0,7 km/h (0 Bft) SW 234 0 min 0,000 mm 0 W/m 13,0 C 15,5 C 4,8 km/h (1 Bft) 99 %
03.09.2014 21:00 15,4 C 15,4 C 15,5 C 85 % 1018,7 hPa 0,0 l/m 0,4 km/h (0 Bft) SW 234 0 min 0,000 mm 0 W/m 12,9 C 15,4 C 4,8 km/h (1 Bft) 99 %
03.09.2014 21:10 15,3 C 15,3 C 15,4 C 85 % 1018,7 hPa 0,0 l/m 0,0 km/h (0 Bft) W-SW 247 0 min 0,000 mm 0 W/m 12,8 C 15,3 C 8,0 km/h (2 Bft) 100 %
03.09.2014 21:20 15,3 C 15,3 C 15,3 C 85 % 1018,9 hPa 0,0 l/m 0,0 km/h (0 Bft) W-SW 247 0 min 0,000 mm 0 W/m 12,8 C 15,3 C 6,4 km/h (2 Bft) 100 %
03.09.2014 21:30 15,2 C 15,2 C 15,3 C 85 % 1018,9 hPa 0,0 l/m 0,0 km/h (0 Bft) W-SW 247 0 min 0,000 mm 0 W/m 12,7 C 15,2 C 4,8 km/h (1 Bft) 100 %
03.09.2014 21:40 15,2 C 15,2 C 15,2 C 85 % 1019,0 hPa 0,0 l/m 0,0 km/h (0 Bft) N-NO 22 0 min 0,000 mm 0 W/m 12,7 C 15,2 C 4,8 km/h (1 Bft) 100 %
03.09.2014 21:50 15,1 C 15,1 C 15,2 C 85 % 1018,9 hPa 0,0 l/m 0,0 km/h (0 Bft) SW 225 0 min 0,000 mm 0 W/m 12,6 C 15,1 C 4,8 km/h (1 Bft) 100 %
03.09.2014 22:00 15,1 C 15,1 C 15,2 C 85 % 1019,0 hPa 0,0 l/m 0,0 km/h (0 Bft) W-SW 247 0 min 0,025 mm 0 W/m 12,6 C 15,1 C 4,8 km/h (1 Bft) 91 %
03.09.2014 22:10 15,1 C 15,1 C 15,1 C 86 % 1019,0 hPa 0,0 l/m 0,0 km/h (0 Bft) W-NW 292 0 min 0,000 mm 0 W/m 12,8 C 15,1 C 4,8 km/h (1 Bft) 100 %
03.09.2014 22:20 15,1 C 15,1 C 15,1 C 86 % 1019,0 hPa 0,0 l/m 0,0 km/h (0 Bft) W 270 0 min 0,000 mm 0 W/m 12,8 C 15,1 C 4,8 km/h (1 Bft) 100 %
03.09.2014 22:30 15,1 C 15,1 C 15,1 C 86 % 1018,9 hPa 0,0 l/m 0,0 km/h (0 Bft) W 270 0 min 0,000 mm 0 W/m 12,8 C 15,1 C 1,6 km/h (1 Bft) 100 %
03.09.2014 22:40 15,1 C 15,1 C 15,1 C 86 % 1018,9 hPa 0,0 l/m 0,0 km/h (0 Bft) W-SW 247 0 min 0,000 mm 0 W/m 12,8 C 15,1 C 6,4 km/h (2 Bft) 100 %
03.09.2014 22:50 15,1 C 15,1 C 15,1 C 86 % 1018,8 hPa 0,0 l/m 0,0 km/h (0 Bft) SW 225 0 min 0,000 mm 0 W/m 12,8 C 15,1 C 4,8 km/h (1 Bft) 100 %
03.09.2014 23:00 15,0 C 15,0 C 15,1 C 86 % 1018,8 hPa 0,0 l/m 0,0 km/h (0 Bft) SW 225 0 min 0,000 mm 0 W/m 12,7 C 15,0 C 4,8 km/h (1 Bft) 100 %
03.09.2014 23:10 14,8 C 14,8 C 15,0 C 86 % 1018,8 hPa 0,0 l/m 0,0 km/h (0 Bft) SW 225 0 min 0,000 mm 0 W/m 12,5 C 14,8 C 3,2 km/h (1 Bft) 100 %
03.09.2014 23:20 14,6 C 14,6 C 14,8 C 86 % 1018,8 hPa 0,0 l/m 0,0 km/h (0 Bft) SW 225 0 min 0,000 mm 0 W/m 12,3 C 14,6 C 4,8 km/h (1 Bft) 100 %
03.09.2014 23:30 14,3 C 14,3 C 14,6 C 86 % 1018,8 hPa 0,0 l/m 0,0 km/h (0 Bft) SW 225 0 min 0,000 mm 0 W/m 12,0 C 14,3 C 3,2 km/h (1 Bft) 100 %
03.09.2014 23:40 14,1 C 14,1 C 14,3 C 87 % 1018,8 hPa 0,0 l/m 0,0 km/h (0 Bft) SW 225 0 min 0,000 mm 0 W/m 12,0 C 14,1 C 6,4 km/h (2 Bft) 100 %
03.09.2014 23:50 13,9 C 13,9 C 14,1 C 87 % 1018,7 hPa 0,0 l/m 0,0 km/h (0 Bft) SW 225 0 min 0,000 mm 0 W/m 11,8 C 13,9 C 4,8 km/h (1 Bft) 100 %
_ Min-Zeit 05:30 05:30 05:40 17:20 18:20 - 00:00 - - - - - 05:30 05:30 00:00 17:50
Minimum _ 12,2 C 12,2 C 12,3 C 78 % 1018,0 hPa - 0,0 km/h (0 Bft) - - - - - 10,3 C 12,2 C 0,0 km/h (0 Bft) 90 %
_ Max-Zeit 17:10 17:20 17:10 00:00 00:00 00:00 10:00 - - 11:30 16:00 15:20 17:00 17:10 12:00 00:00
Maximum _ 18,1 C 18,1 C 18,1 C 88 % 1020,7 hPa 0,0 l/m 1,6 km/h
W (1 Bft)
- - 20 min 0,127 mm 343 W/m 14,5 C 18,1 C 17,7 km/h
N-NO (3 Bft)
100 %
Durchschnitt _ 14,5 C 14,5 C 14,6 C 85 % 1019,5 hPa #0,0 l/m 0,2 km/h (0 Bft) W - #6:00 h #0,965 mm 133 W/m 12,1 C 14,5 C 4,7 km/h (1 Bft) 99 %
PRIVATE WETTERSTATION BILLIGHEIM-ALLFELD - www.neckar-odenwald-wetter.de - Holger Sonntag